Time;durP1;ratioP1;P1;durP2;ratioP2;P2;SDS_P1;SDS_P2;PMS_P1;PMS_P2;Temp;Humidity;BMP_temperature;BMP_pressure;BME280_temperature;BME280_humidity;BME280_pressure;Samples;Min_cycle;Max_cycle;Signal;HPM_P1;HPM_P2
2024/01/20 00:01:36;;;;;;;11.18;3.80;;;1.50;89.70;;;;;;5091893;28;20418;-77
2024/01/20 00:04:02;;;;;;;9.53;3.43;;;1.50;89.80;;;;;;5094572;28;20827;-77
2024/01/20 00:06:27;;;;;;;9.02;3.10;;;1.50;90.60;;;;;;5099834;28;20402;-77
2024/01/20 00:08:55;;;;;;;11.73;3.50;;;1.50;90.70;;;;;;5096717;28;20464;-76
2024/01/20 00:11:21;;;;;;;9.95;3.22;;;1.50;90.50;;;;;;5089027;28;20769;-77
2024/01/20 00:13:47;;;;;;;11.20;3.03;;;1.50;90.30;;;;;;5098793;28;20764;-76
2024/01/20 00:16:12;;;;;;;10.02;3.10;;;1.60;90.50;;;;;;5097087;28;20405;-77
2024/01/20 00:18:38;;;;;;;10.27;3.27;;;1.60;90.90;;;;;;5090706;28;20444;-77
2024/01/20 00:21:04;;;;;;;10.37;3.30;;;1.60;90.70;;;;;;5097302;28;20988;-77
2024/01/20 00:23:29;;;;;;;11.82;3.50;;;1.60;90.90;;;;;;5088606;28;20394;-77
2024/01/20 00:25:55;;;;;;;12.65;4.07;;;1.70;90.90;;;;;;5095995;28;20452;-77
2024/01/20 00:28:21;;;;;;;11.00;3.70;;;1.70;90.90;;;;;;5098098;28;20469;-77
2024/01/20 00:30:46;;;;;;;9.87;3.97;;;1.70;91.10;;;;;;5094031;28;20752;-77
2024/01/20 00:33:12;;;;;;;10.40;3.83;;;1.70;91.20;;;;;;5107750;28;20400;-76
2024/01/20 00:35:42;;;;;;;11.02;3.80;;;1.70;91.00;;;;;;5091617;28;20509;-76
2024/01/20 00:38:08;;;;;;;11.10;3.50;;;1.60;91.20;;;;;;5107406;28;20549;-77
2024/01/20 00:40:33;;;;;;;12.88;4.35;;;1.60;90.70;;;;;;5097001;28;20503;-77
2024/01/20 00:42:59;;;;;;;10.87;4.37;;;1.60;90.90;;;;;;5090953;28;20881;-77
2024/01/20 00:45:25;;;;;;;13.50;4.55;;;1.60;91.10;;;;;;5078099;28;20419;-77
2024/01/20 00:47:50;;;;;;;14.33;4.60;;;1.50;91.00;;;;;;5106675;28;20408;-77
2024/01/20 00:50:16;;;;;;;11.73;4.55;;;1.50;90.60;;;;;;5105731;28;20543;-76
2024/01/20 00:52:42;;;;;;;13.23;5.03;;;1.40;90.40;;;;;;5098753;28;20926;-76
2024/01/20 00:55:08;;;;;;;9.63;4.80;;;1.40;90.60;;;;;;5093393;28;20425;-76
2024/01/20 00:57:33;;;;;;;11.15;5.03;;;1.30;90.60;;;;;;5090266;28;20450;-76
2024/01/20 00:59:59;;;;;;;12.30;5.60;;;1.20;91.00;;;;;;5097204;28;20424;-77
2024/01/20 01:02:25;;;;;;;11.60;5.53;;;1.20;91.10;;;;;;5097170;28;20408;-77
2024/01/20 01:04:51;;;;;;;10.85;5.70;;;1.20;91.40;;;;;;5103239;28;20408;-77
2024/01/20 01:07:16;;;;;;;13.23;5.95;;;1.20;91.60;;;;;;5079466;28;20444;-77
2024/01/20 01:09:42;;;;;;;13.10;6.60;;;1.20;91.90;;;;;;5101694;28;20423;-77
2024/01/20 01:12:08;;;;;;;13.70;6.20;;;1.20;92.30;;;;;;5091388;28;20422;-77
2024/01/20 01:14:33;;;;;;;11.55;6.55;;;1.20;92.30;;;;;;5101211;28;20445;-77
2024/01/20 01:16:59;;;;;;;12.27;6.30;;;1.20;92.70;;;;;;5102578;28;20440;-77
2024/01/20 01:19:25;;;;;;;12.23;7.40;;;1.20;92.50;;;;;;5098804;28;20433;-77
2024/01/20 01:21:50;;;;;;;13.93;6.88;;;1.20;92.60;;;;;;5086931;28;21206;-76
2024/01/20 01:24:16;;;;;;;12.93;6.90;;;1.20;93.10;;;;;;5101316;28;20406;-77
2024/01/20 01:26:41;;;;;;;10.30;6.27;;;1.20;93.30;;;;;;5087091;28;20421;-77
2024/01/20 01:29:07;;;;;;;13.10;6.60;;;1.20;93.20;;;;;;5086851;28;20812;-77
2024/01/20 01:31:33;;;;;;;13.23;7.07;;;1.20;93.10;;;;;;5092167;28;20509;-77
2024/01/20 01:33:59;;;;;;;11.60;6.60;;;1.20;93.00;;;;;;5103418;28;20401;-77
2024/01/20 01:36:24;;;;;;;14.07;7.20;;;1.20;92.80;;;;;;5102852;28;20477;-77
2024/01/20 01:38:50;;;;;;;13.50;6.87;;;1.20;93.30;;;;;;5102411;28;20917;-77
2024/01/20 01:41:15;;;;;;;11.93;6.40;;;1.20;93.60;;;;;;5100083;28;20512;-77
2024/01/20 01:43:41;;;;;;;14.32;6.90;;;1.20;93.30;;;;;;5103479;28;21328;-77
2024/01/20 01:46:07;;;;;;;10.93;6.55;;;1.20;93.40;;;;;;5107164;28;20399;-77
2024/01/20 01:48:33;;;;;;;14.02;6.55;;;1.20;93.50;;;;;;5092914;28;20432;-76
2024/01/20 01:51:03;;;;;;;15.20;7.10;;;1.20;93.30;;;;;;5108583;28;20456;-76
2024/01/20 01:53:29;;;;;;;16.13;7.22;;;1.20;93.50;;;;;;5095004;28;20433;-76
2024/01/20 01:55:55;;;;;;;15.90;7.47;;;1.20;93.50;;;;;;5103226;28;20503;-76
2024/01/20 01:58:21;;;;;;;13.65;7.13;;;1.10;93.40;;;;;;5094884;28;20561;-76
2024/01/20 02:00:47;;;;;;;12.43;7.15;;;1.10;93.60;;;;;;5109942;28;20480;-77
2024/01/20 02:03:13;;;;;;;15.30;7.45;;;1.10;93.90;;;;;;5093433;28;20425;-77
2024/01/20 02:05:39;;;;;;;13.88;7.55;;;1.10;94.20;;;;;;5108727;28;20404;-77
2024/01/20 02:08:06;;;;;;;11.77;7.55;;;1.10;94.50;;;;;;5100075;28;20425;-77
2024/01/20 02:10:33;;;;;;;14.20;7.85;;;1.10;94.50;;;;;;5109049;28;20489;-77
2024/01/20 02:13:00;;;;;;;13.05;7.60;;;1.10;94.40;;;;;;5100434;28;20428;-77
2024/01/20 02:15:28;;;;;;;16.15;8.18;;;1.10;94.40;;;;;;5100090;28;20424;-77
2024/01/20 02:17:55;;;;;;;18.05;8.43;;;1.10;94.30;;;;;;5104304;28;20818;-77
2024/01/20 02:20:22;;;;;;;15.43;7.80;;;1.10;94.60;;;;;;5106378;28;20400;-77
2024/01/20 02:22:47;;;;;;;13.88;8.07;;;1.10;94.20;;;;;;5091479;28;20430;-77
2024/01/20 02:25:13;;;;;;;14.60;8.27;;;1.10;94.10;;;;;;5096169;28;20483;-77
2024/01/20 02:27:39;;;;;;;12.47;7.73;;;1.10;94.30;;;;;;5094160;28;20545;-76
2024/01/20 02:30:05;;;;;;;16.52;8.30;;;1.10;94.60;;;;;;5097661;28;20458;-76
2024/01/20 02:32:30;;;;;;;14.82;8.98;;;1.10;94.80;;;;;;5107449;28;20408;-77
2024/01/20 02:34:56;;;;;;;14.25;8.55;;;1.10;94.60;;;;;;5102565;28;21145;-77
2024/01/20 02:37:22;;;;;;;14.40;8.27;;;1.10;94.90;;;;;;5101074;28;20460;-76
2024/01/20 02:39:48;;;;;;;13.47;8.40;;;1.10;95.00;;;;;;5106727;28;20894;-77
2024/01/20 02:42:13;;;;;;;15.73;8.18;;;1.20;94.90;;;;;;5106536;28;20416;-76
2024/01/20 02:44:39;;;;;;;15.98;8.73;;;1.10;94.50;;;;;;5088379;28;20501;-76
2024/01/20 02:47:05;;;;;;;14.20;8.60;;;1.10;94.60;;;;;;5088025;28;20423;-76
2024/01/20 02:49:31;;;;;;;14.88;9.20;;;1.10;94.50;;;;;;5090818;28;20948;-77
2024/01/20 02:51:57;;;;;;;13.70;8.77;;;1.10;94.40;;;;;;5089046;28;20412;-77
2024/01/20 02:54:23;;;;;;;15.40;9.23;;;1.10;94.20;;;;;;5091465;28;20421;-77
2024/01/20 02:56:49;;;;;;;20.65;10.65;;;1.00;94.30;;;;;;5093129;28;20452;-76
2024/01/20 02:59:14;;;;;;;15.97;10.23;;;1.00;94.60;;;;;;5102616;28;20512;-77
2024/01/20 03:01:40;;;;;;;14.43;10.40;;;1.00;94.50;;;;;;5106564;28;20466;-76
2024/01/20 03:04:05;;;;;;;15.40;9.80;;;1.00;94.70;;;;;;5096632;28;20834;-76
2024/01/20 03:06:32;;;;;;;15.63;10.20;;;0.90;94.60;;;;;;5103396;28;20396;-76
2024/01/20 03:08:58;;;;;;;17.00;10.80;;;0.90;94.90;;;;;;5098283;28;20503;-76
2024/01/20 03:11:24;;;;;;;16.88;10.85;;;0.90;94.80;;;;;;5103481;28;20515;-77
2024/01/20 03:13:50;;;;;;;16.08;11.05;;;1.00;95.10;;;;;;5108670;28;20410;-77
2024/01/20 03:16:15;;;;;;;18.15;11.05;;;0.90;95.40;;;;;;5094299;28;20427;-76
2024/01/20 03:18:41;;;;;;;18.37;11.03;;;0.90;95.10;;;;;;5101960;27;20443;-77
2024/01/20 03:21:07;;;;;;;19.40;12.30;;;0.90;94.60;;;;;;5094335;28;21022;-76
2024/01/20 03:23:33;;;;;;;17.73;12.27;;;0.80;94.60;;;;;;5108174;28;20905;-76
2024/01/20 03:26:04;;;;;;;21.90;12.52;;;0.80;94.80;;;;;;5092725;28;20441;-76
2024/01/20 03:28:30;;;;;;;19.45;13.13;;;0.70;94.80;;;;;;5096181;28;20455;-77
2024/01/20 03:30:55;;;;;;;22.80;13.30;;;0.70;94.80;;;;;;5088505;28;20461;-77
2024/01/20 03:33:21;;;;;;;18.35;13.55;;;0.70;94.80;;;;;;5084404;28;20784;-77
2024/01/20 03:35:47;;;;;;;22.73;14.03;;;0.60;94.90;;;;;;5089013;28;20418;-77
2024/01/20 03:38:12;;;;;;;21.02;14.63;;;0.60;95.20;;;;;;5088726;28;20966;-77
2024/01/20 03:40:38;;;;;;;21.80;14.85;;;0.60;95.20;;;;;;5098197;28;20437;-77
2024/01/20 03:43:04;;;;;;;19.75;14.77;;;0.60;95.40;;;;;;5092129;28;20436;-77
2024/01/20 03:45:29;;;;;;;21.93;15.10;;;0.60;95.40;;;;;;5102310;28;20456;-77
2024/01/20 03:47:55;;;;;;;24.42;16.05;;;0.50;95.60;;;;;;5095713;28;21129;-76
2024/01/20 03:50:21;;;;;;;22.10;15.57;;;0.50;95.70;;;;;;5097366;28;20452;-77
2024/01/20 03:52:47;;;;;;;22.63;16.50;;;0.50;95.70;;;;;;5098979;28;20404;-77
2024/01/20 03:55:12;;;;;;;21.35;16.65;;;0.50;95.80;;;;;;5105271;28;20443;-77
2024/01/20 03:57:38;;;;;;;24.10;17.40;;;0.50;96.10;;;;;;5100430;28;20460;-77
2024/01/20 04:00:04;;;;;;;25.45;18.05;;;0.50;96.20;;;;;;5092331;28;20423;-77
2024/01/20 04:02:30;;;;;;;24.75;17.63;;;0.50;96.30;;;;;;5102759;28;20420;-77
2024/01/20 04:04:56;;;;;;;25.35;18.42;;;0.50;96.20;;;;;;5106278;28;20418;-77
2024/01/20 04:07:22;;;;;;;25.45;18.58;;;0.50;96.40;;;;;;5092471;28;20421;-77
2024/01/20 04:09:47;;;;;;;25.83;18.70;;;0.40;96.20;;;;;;5094927;28;20440;-77
2024/01/20 04:12:13;;;;;;;24.90;18.02;;;0.40;96.10;;;;;;5099352;28;20420;-76
2024/01/20 04:14:38;;;;;;;26.07;18.63;;;0.40;96.20;;;;;;5104086;28;20747;-77
2024/01/20 04:17:04;;;;;;;25.80;18.63;;;0.40;96.40;;;;;;5103688;28;20428;-78
2024/01/20 04:19:29;;;;;;;26.15;19.20;;;0.40;96.50;;;;;;5102710;28;20432;-77
2024/01/20 04:21:55;;;;;;;27.33;19.67;;;0.40;96.30;;;;;;5097181;28;20433;-77
2024/01/20 04:24:21;;;;;;;27.97;19.37;;;0.40;96.30;;;;;;5087144;28;20413;-77
2024/01/20 04:26:46;;;;;;;26.73;19.17;;;0.40;96.40;;;;;;5099291;28;20758;-77
2024/01/20 04:29:12;;;;;;;28.50;19.57;;;0.50;96.70;;;;;;5098021;28;20404;-77
2024/01/20 04:31:37;;;;;;;30.30;19.63;;;0.40;96.70;;;;;;5096359;28;20491;-77
2024/01/20 04:34:04;;;;;;;27.00;18.08;;;0.50;96.80;;;;;;5097053;28;20415;-77
2024/01/20 04:36:30;;;;;;;30.00;20.42;;;0.50;96.60;;;;;;5097267;28;20427;-77
2024/01/20 04:38:56;;;;;;;26.43;19.90;;;0.50;96.60;;;;;;5096652;28;20949;-77
2024/01/20 04:41:21;;;;;;;25.73;19.38;;;0.50;96.90;;;;;;5099488;28;20918;-77
2024/01/20 04:43:47;;;;;;;29.15;20.35;;;0.50;96.70;;;;;;5090832;28;21105;-77
2024/01/20 04:46:12;;;;;;;28.97;20.23;;;0.50;96.80;;;;;;5095871;28;20525;-77
2024/01/20 04:48:38;;;;;;;27.83;19.98;;;0.50;96.80;;;;;;5089402;28;20413;-77
2024/01/20 04:51:04;;;;;;;31.00;20.57;;;0.50;96.60;;;;;;5094869;28;20427;-77
2024/01/20 04:53:29;;;;;;;28.27;20.63;;;0.40;96.40;;;;;;5091727;28;21074;-77
2024/01/20 04:55:55;;;;;;;28.63;21.40;;;0.40;96.50;;;;;;5096036;28;20497;-77
2024/01/20 04:58:21;;;;;;;30.00;21.75;;;0.40;96.40;;;;;;5085064;28;20926;-77
2024/01/20 05:00:46;;;;;;;29.50;21.30;;;0.30;96.30;;;;;;5088928;28;20461;-77
2024/01/20 05:03:12;;;;;;;31.27;21.90;;;0.30;96.20;;;;;;5097085;28;20478;-78
2024/01/20 05:05:39;;;;;;;29.03;22.17;;;0.30;96.30;;;;;;5091481;28;20482;-76
2024/01/20 05:08:05;;;;;;;28.58;22.13;;;0.30;96.50;;;;;;5075514;28;20795;-78
2024/01/20 05:10:31;;;;;;;34.72;22.40;;;0.20;96.50;;;;;;5089582;28;20431;-78
2024/01/20 05:12:56;;;;;;;31.05;22.80;;;0.20;96.50;;;;;;5090834;28;20450;-76
2024/01/20 05:15:22;;;;;;;31.37;22.70;;;0.20;96.40;;;;;;5094714;28;20411;-76
2024/01/20 05:17:48;;;;;;;31.27;23.42;;;0.20;96.50;;;;;;5093300;28;20434;-77
2024/01/20 05:20:15;;;;;;;34.75;23.92;;;0.20;96.60;;;;;;5095493;28;20820;-77
2024/01/20 05:22:41;;;;;;;31.60;22.90;;;0.20;96.90;;;;;;5102292;28;20924;-78
2024/01/20 05:25:07;;;;;;;34.88;24.52;;;0.20;96.80;;;;;;5100685;28;20415;-77
2024/01/20 05:27:32;;;;;;;30.95;22.58;;;0.20;96.60;;;;;;5109005;27;20408;-78
2024/01/20 05:29:58;;;;;;;33.20;22.87;;;0.20;96.60;;;;;;5103722;28;20430;-77
2024/01/20 05:32:23;;;;;;;30.35;22.67;;;0.10;96.40;;;;;;5100320;28;20405;-78
2024/01/20 05:34:49;;;;;;;34.47;24.23;;;0.10;96.40;;;;;;5103671;28;20773;-78
2024/01/20 05:37:15;;;;;;;32.27;24.40;;;0.10;96.50;;;;;;5098599;28;20786;-78
2024/01/20 05:39:41;;;;;;;34.20;24.77;;;0.10;96.50;;;;;;5094713;28;20432;-78
2024/01/20 05:42:07;;;;;;;33.57;24.47;;;0.10;96.60;;;;;;5106470;28;20400;-77
2024/01/20 05:44:32;;;;;;;33.80;24.57;;;0.10;96.50;;;;;;5095919;28;20413;-78
2024/01/20 05:46:58;;;;;;;36.13;25.52;;;0.10;96.50;;;;;;5097858;28;20786;-78
2024/01/20 05:49:23;;;;;;;34.63;24.47;;;0.10;96.40;;;;;;5094031;28;20426;-78
2024/01/20 05:51:49;;;;;;;37.08;24.45;;;0.10;96.50;;;;;;5097086;28;20813;-78
2024/01/20 05:54:14;;;;;;;35.22;24.63;;;0.00;96.40;;;;;;5095207;28;20479;-78
2024/01/20 05:56:40;;;;;;;35.07;25.33;;;0.10;96.50;;;;;;5098534;28;20979;-77
2024/01/20 05:59:06;;;;;;;34.97;25.33;;;0.00;96.40;;;;;;5092943;28;20417;-78
2024/01/20 06:01:31;;;;;;;37.33;25.80;;;0.00;96.50;;;;;;5098650;28;21152;-78
2024/01/20 06:03:57;;;;;;;36.83;25.33;;;0.00;96.50;;;;;;5093473;28;20457;-78
2024/01/20 06:06:22;;;;;;;36.33;24.88;;;0.00;96.40;;;;;;5095282;28;20934;-78
2024/01/20 06:08:50;;;;;;;36.70;25.40;;;-0.10;96.40;;;;;;5082333;28;20483;-77
2024/01/20 06:11:16;;;;;;;39.15;26.10;;;-0.10;96.40;;;;;;5094633;28;20917;-77
2024/01/20 06:13:41;;;;;;;38.58;25.23;;;-0.10;96.50;;;;;;5094953;28;20437;-78
2024/01/20 06:16:07;;;;;;;38.60;25.23;;;-0.10;96.50;;;;;;5094577;28;20807;-78
2024/01/20 06:18:33;;;;;;;37.30;25.42;;;-0.10;96.60;;;;;;5094326;28;20809;-77
2024/01/20 06:20:59;;;;;;;39.38;26.42;;;-0.10;96.80;;;;;;5094891;28;20841;-78
2024/01/20 06:23:26;;;;;;;39.53;25.00;;;-0.20;96.60;;;;;;5094543;28;20422;-78
2024/01/20 06:25:51;;;;;;;38.47;26.65;;;-0.10;96.60;;;;;;5094659;28;20425;-78
2024/01/20 06:28:17;;;;;;;38.45;25.38;;;-0.10;96.60;;;;;;5095928;28;20405;-77
2024/01/20 06:30:46;;;;;;;37.25;26.23;;;-0.10;96.60;;;;;;5095530;28;20415;-78
2024/01/20 06:33:12;;;;;;;37.42;25.90;;;-0.20;96.50;;;;;;5094695;28;20398;-77
2024/01/20 06:35:37;;;;;;;37.80;25.48;;;-0.20;96.60;;;;;;5090404;28;20417;-77
2024/01/20 06:38:04;;;;;;;42.33;26.08;;;-0.20;96.60;;;;;;5089245;28;20513;-78
2024/01/20 06:40:29;;;;;;;42.15;26.33;;;-0.20;96.70;;;;;;5090589;28;20478;-78
2024/01/20 06:42:55;;;;;;;41.90;26.13;;;-0.20;96.60;;;;;;5084162;28;20413;-77
2024/01/20 06:45:21;;;;;;;41.58;26.05;;;-0.20;96.50;;;;;;5090284;28;20402;-78
2024/01/20 06:47:46;;;;;;;42.70;26.20;;;-0.20;96.60;;;;;;5108080;28;20410;-78
2024/01/20 06:50:13;;;;;;;42.67;26.93;;;-0.30;96.60;;;;;;5104663;28;20397;-78
2024/01/20 06:52:38;;;;;;;44.23;27.40;;;-0.20;96.80;;;;;;5094555;28;20413;-77
2024/01/20 06:55:05;;;;;;;39.00;26.87;;;-0.30;96.80;;;;;;5102694;28;20413;-78
2024/01/20 06:57:30;;;;;;;41.65;26.60;;;-0.30;96.60;;;;;;5093723;28;20917;-78
2024/01/20 06:59:56;;;;;;;39.77;26.63;;;-0.30;96.50;;;;;;5096787;28;20426;-78
2024/01/20 07:02:22;;;;;;;41.90;26.20;;;-0.30;96.60;;;;;;5087860;28;20525;-78
2024/01/20 07:04:47;;;;;;;43.75;26.60;;;-0.30;96.70;;;;;;5100173;28;20939;-78
2024/01/20 07:07:13;;;;;;;42.10;26.35;;;-0.40;96.50;;;;;;5095481;28;20953;-78
2024/01/20 07:09:39;;;;;;;44.67;26.23;;;-0.40;96.60;;;;;;5095975;28;20780;-78
2024/01/20 07:12:06;;;;;;;44.60;26.70;;;-0.30;96.60;;;;;;5095796;28;20418;-78
2024/01/20 07:14:32;;;;;;;42.93;26.23;;;-0.30;96.60;;;;;;5100118;28;20465;-78
2024/01/20 07:16:57;;;;;;;45.37;27.67;;;-0.30;96.80;;;;;;5099736;28;20420;-78
2024/01/20 07:19:23;;;;;;;45.08;27.45;;;-0.30;96.70;;;;;;5106309;28;20397;-78
2024/01/20 07:21:48;;;;;;;44.37;26.80;;;-0.30;96.90;;;;;;5098327;28;20414;-78
2024/01/20 07:24:14;;;;;;;45.07;27.77;;;-0.30;96.80;;;;;;5098151;28;20436;-78
2024/01/20 07:26:40;;;;;;;43.38;26.23;;;-0.30;96.70;;;;;;5087575;28;20921;-78
2024/01/20 07:29:05;;;;;;;43.27;26.57;;;-0.30;96.70;;;;;;5097703;28;20396;-77
2024/01/20 07:31:31;;;;;;;45.63;27.03;;;-0.30;96.60;;;;;;5100197;28;20982;-77
2024/01/20 07:33:56;;;;;;;46.20;27.05;;;-0.30;96.60;;;;;;5096755;28;20396;-77
2024/01/20 07:36:22;;;;;;;45.10;25.00;;;-0.30;96.50;;;;;;5091718;28;20411;-77
2024/01/20 07:38:48;;;;;;;45.53;26.23;;;-0.30;96.20;;;;;;5079734;28;20965;-77
2024/01/20 07:41:13;;;;;;;45.75;26.38;;;-0.30;96.40;;;;;;5089769;28;20767;-76
2024/01/20 07:43:39;;;;;;;45.27;26.47;;;-0.30;96.40;;;;;;5093034;28;20505;-77
2024/01/20 07:46:04;;;;;;;44.92;26.20;;;-0.30;96.50;;;;;;5083035;28;20759;-77
2024/01/20 07:48:30;;;;;;;46.40;26.75;;;-0.30;96.40;;;;;;5104708;28;20937;-77
2024/01/20 07:50:56;;;;;;;45.03;26.47;;;-0.30;96.40;;;;;;5083561;28;20453;-78
2024/01/20 07:53:21;;;;;;;45.67;25.73;;;-0.30;96.60;;;;;;5093686;28;20479;-77
2024/01/20 07:55:48;;;;;;;42.13;22.85;;;-0.20;96.40;;;;;;5099692;28;20410;-77
2024/01/20 07:58:14;;;;;;;43.92;24.95;;;-0.20;96.40;;;;;;5077646;28;20539;-77
2024/01/20 08:00:39;;;;;;;42.27;24.80;;;-0.10;96.40;;;;;;5097189;28;20434;-77
2024/01/20 08:03:05;;;;;;;42.40;25.20;;;-0.10;96.40;;;;;;5089974;28;20433;-77
2024/01/20 08:05:32;;;;;;;42.43;23.30;;;-0.10;96.30;;;;;;5089647;28;20426;-77
2024/01/20 08:07:57;;;;;;;43.92;25.92;;;-0.10;96.10;;;;;;5091497;28;20402;-77
2024/01/20 08:10:23;;;;;;;42.72;25.15;;;0.00;96.10;;;;;;5089187;28;20410;-77
2024/01/20 08:12:51;;;;;;;42.58;24.98;;;0.00;96.10;;;;;;5086627;28;20885;-77
2024/01/20 08:15:16;;;;;;;41.45;24.77;;;0.00;96.00;;;;;;5075933;28;20419;-77
2024/01/20 08:17:42;;;;;;;39.60;24.70;;;0.00;96.00;;;;;;5088289;28;20430;-78
2024/01/20 08:20:08;;;;;;;42.35;24.60;;;0.00;95.90;;;;;;5091993;28;20419;-77
2024/01/20 08:22:34;;;;;;;40.15;24.52;;;0.10;95.90;;;;;;5091686;28;20829;-78
2024/01/20 08:25:03;;;;;;;39.50;23.20;;;0.10;95.90;;;;;;5083970;28;20436;-79
2024/01/20 08:27:28;;;;;;;39.40;23.65;;;0.20;95.90;;;;;;5082550;28;20406;-79
2024/01/20 08:29:54;;;;;;;39.80;23.53;;;0.30;95.90;;;;;;5085010;28;20460;-78
2024/01/20 08:32:19;;;;;;;40.07;24.00;;;0.30;95.80;;;;;;5092214;28;20463;-78
2024/01/20 08:34:45;;;;;;;37.97;22.70;;;0.40;95.80;;;;;;5091531;28;20453;-78
2024/01/20 08:37:11;;;;;;;38.10;23.77;;;0.50;95.70;;;;;;5084104;28;20444;-78
2024/01/20 08:39:37;;;;;;;41.27;23.33;;;0.50;95.60;;;;;;5083075;28;20489;-79
2024/01/20 08:42:03;;;;;;;39.30;23.53;;;0.60;95.60;;;;;;5086728;28;20402;-76
2024/01/20 08:44:32;;;;;;;38.15;23.05;;;0.70;95.50;;;;;;5085507;28;20461;-78
2024/01/20 08:46:58;;;;;;;35.78;21.48;;;0.70;95.30;;;;;;5089378;28;20397;-77
2024/01/20 08:49:23;;;;;;;38.22;22.63;;;0.80;95.10;;;;;;5070273;28;20413;-77
2024/01/20 08:51:49;;;;;;;39.35;23.20;;;0.80;94.80;;;;;;5089353;28;20469;-77
2024/01/20 08:54:15;;;;;;;38.83;23.83;;;0.90;94.70;;;;;;5081062;28;20830;-77
2024/01/20 08:56:41;;;;;;;38.17;22.90;;;1.00;94.60;;;;;;5089511;28;20416;-77
2024/01/20 08:59:07;;;;;;;35.28;20.23;;;1.00;94.50;;;;;;5089452;28;20402;-77
2024/01/20 09:01:33;;;;;;;36.47;22.13;;;1.00;94.30;;;;;;5088247;28;20576;-77
2024/01/20 09:04:00;;;;;;;37.90;23.10;;;1.10;94.00;;;;;;5079342;28;20405;-78
2024/01/20 09:06:25;;;;;;;39.25;24.13;;;1.10;93.90;;;;;;5085930;28;20948;-78
2024/01/20 09:08:51;;;;;;;40.43;23.63;;;1.10;93.70;;;;;;5087238;28;20414;-78
2024/01/20 09:11:17;;;;;;;39.35;23.95;;;1.20;93.70;;;;;;5091776;28;20398;-78
2024/01/20 09:13:43;;;;;;;37.92;23.55;;;1.20;93.60;;;;;;5082757;28;20487;-78
2024/01/20 09:16:09;;;;;;;39.45;23.58;;;1.20;93.50;;;;;;5082705;28;20509;-78
2024/01/20 09:18:34;;;;;;;38.20;24.02;;;1.20;93.50;;;;;;5087053;28;20513;-78
2024/01/20 09:21:00;;;;;;;37.58;23.38;;;1.20;93.40;;;;;;5087259;28;20490;-78
2024/01/20 09:23:26;;;;;;;38.83;23.60;;;1.30;93.40;;;;;;5089982;28;20481;-78
2024/01/20 09:25:51;;;;;;;40.67;23.10;;;1.30;93.30;;;;;;5085963;28;20900;-79
2024/01/20 09:28:17;;;;;;;42.42;23.73;;;1.30;93.40;;;;;;5089834;28;20400;-79
2024/01/20 09:30:43;;;;;;;36.57;23.77;;;1.30;93.30;;;;;;5089040;28;20968;-78
2024/01/20 09:33:08;;;;;;;39.55;23.88;;;1.30;93.30;;;;;;5087910;28;20558;-79
2024/01/20 09:35:34;;;;;;;38.28;23.42;;;1.30;93.40;;;;;;5090586;28;20391;-79
2024/01/20 09:38:00;;;;;;;38.70;24.40;;;1.30;93.60;;;;;;5089470;28;20437;-78
2024/01/20 09:40:26;;;;;;;39.27;23.43;;;1.40;93.50;;;;;;5089375;28;20502;-78
2024/01/20 09:42:52;;;;;;;39.70;24.37;;;1.40;93.40;;;;;;5087466;28;20422;-78
2024/01/20 09:45:18;;;;;;;38.70;23.30;;;1.40;93.40;;;;;;5086230;28;20926;-78
2024/01/20 09:47:44;;;;;;;40.15;23.35;;;1.40;93.40;;;;;;5107077;28;20397;-79
2024/01/20 09:50:10;;;;;;;38.35;22.70;;;1.40;93.50;;;;;;5094683;28;20547;-78
2024/01/20 09:52:50;;;;;;;41.20;23.88;;;1.40;93.50;;;;;;5087782;28;20418;-79
2024/01/20 09:55:23;;;;;;;41.08;24.48;;;1.50;93.60;;;;;;5084061;28;20432;-79
2024/01/20 09:57:49;;;;;;;35.53;22.53;;;1.40;93.60;;;;;;5095696;28;20857;-77
2024/01/20 10:00:19;;;;;;;35.45;22.25;;;1.50;93.60;;;;;;5105373;28;20931;-77
2024/01/20 10:02:45;;;;;;;38.92;22.55;;;1.50;93.60;;;;;;5090702;28;20526;-78
2024/01/20 10:05:12;;;;;;;37.92;23.38;;;1.50;93.70;;;;;;5092842;28;20420;-77
2024/01/20 10:07:38;;;;;;;38.15;22.33;;;1.50;93.70;;;;;;5095483;28;20776;-78
2024/01/20 10:10:05;;;;;;;39.65;23.05;;;1.60;93.60;;;;;;5093993;28;20431;-78
2024/01/20 10:12:30;;;;;;;40.65;23.85;;;1.60;93.60;;;;;;5101241;28;20416;-77
2024/01/20 10:14:56;;;;;;;37.30;23.50;;;1.60;93.60;;;;;;5101553;28;20488;-78
2024/01/20 10:17:22;;;;;;;37.87;22.67;;;1.60;93.50;;;;;;5100416;28;20499;-78
2024/01/20 10:19:48;;;;;;;36.08;22.30;;;1.70;93.60;;;;;;5095344;28;20425;-78
2024/01/20 10:22:13;;;;;;;39.00;24.27;;;1.70;93.60;;;;;;5099368;28;20417;-78
2024/01/20 10:24:52;;;;;;;37.83;23.15;;;1.70;93.50;;;;;;5076187;28;20433;-78
2024/01/20 10:27:24;;;;;;;34.85;21.13;;;1.70;93.50;;;;;;5103740;28;20418;-78
2024/01/20 10:29:50;;;;;;;37.47;22.17;;;1.80;93.50;;;;;;5103605;28;20416;-77
2024/01/20 10:32:16;;;;;;;38.50;21.70;;;1.80;93.40;;;;;;5109141;28;20416;-77
2024/01/20 10:34:43;;;;;;;34.42;21.70;;;1.80;93.30;;;;;;5106340;28;20974;-78
2024/01/20 10:37:11;;;;;;;36.13;21.85;;;1.80;93.20;;;;;;5106487;28;20458;-78
2024/01/20 10:39:46;;;;;;;33.35;20.85;;;1.90;93.20;;;;;;5082107;28;20501;-78
2024/01/20 10:42:14;;;;;;;34.45;20.35;;;1.90;93.10;;;;;;5089348;28;20454;-78
2024/01/20 10:44:56;;;;;;;34.92;20.45;;;1.90;93.00;;;;;;5099276;28;20481;-78
2024/01/20 10:47:40;;;;;;;34.33;21.08;;;2.00;93.00;;;;;;5092059;28;20413;-78
2024/01/20 10:50:07;;;;;;;33.53;20.40;;;2.00;93.00;;;;;;5095090;28;20533;-78
2024/01/20 10:52:35;;;;;;;34.42;21.42;;;2.00;92.80;;;;;;5096899;28;20503;-78
2024/01/20 10:55:02;;;;;;;33.55;19.77;;;2.00;92.70;;;;;;5101445;28;20476;-78
2024/01/20 10:57:27;;;;;;;35.13;20.67;;;2.00;92.70;;;;;;5102481;28;21200;-78
2024/01/20 10:59:56;;;;;;;31.98;19.77;;;2.10;92.60;;;;;;5099933;28;20429;-78
2024/01/20 11:02:23;;;;;;;30.35;20.15;;;2.10;92.40;;;;;;5099596;28;20844;-78
2024/01/20 11:04:49;;;;;;;32.77;20.10;;;2.10;92.50;;;;;;5094267;28;20424;-78
2024/01/20 11:07:26;;;;;;;34.42;18.02;;;2.10;92.40;;;;;;5099164;28;20419;-78
2024/01/20 11:09:59;;;;;;;37.42;20.45;;;2.10;92.50;;;;;;5097994;28;20505;-78
2024/01/20 11:12:26;;;;;;;33.50;19.83;;;2.20;92.30;;;;;;5095816;28;20977;-78
2024/01/20 11:14:57;;;;;;;33.15;19.80;;;2.20;92.20;;;;;;5097372;28;20426;-78
2024/01/20 11:17:23;;;;;;;34.10;18.58;;;2.30;92.00;;;;;;5094819;28;20469;-79
2024/01/20 11:19:52;;;;;;;32.67;20.08;;;2.30;92.00;;;;;;5099214;28;20406;-79
2024/01/20 11:22:31;;;;;;;31.73;19.63;;;2.30;91.80;;;;;;5103530;28;20479;-78
2024/01/20 11:24:57;;;;;;;31.08;19.55;;;2.40;91.60;;;;;;5078813;28;21001;-78
2024/01/20 11:27:23;;;;;;;33.33;19.92;;;2.40;91.60;;;;;;5104336;28;20397;-78
2024/01/20 11:29:48;;;;;;;33.17;18.75;;;2.50;91.10;;;;;;5098616;28;20928;-78
2024/01/20 11:32:14;;;;;;;32.87;19.00;;;2.50;91.30;;;;;;5105136;28;21098;-80
2024/01/20 11:34:43;;;;;;;30.93;20.30;;;2.50;90.80;;;;;;5091363;28;21949;-79
2024/01/20 11:37:09;;;;;;;33.30;19.23;;;2.50;90.30;;;;;;5098533;28;20424;-78
2024/01/20 11:39:35;;;;;;;34.25;19.17;;;2.60;90.30;;;;;;5086075;28;20448;-78
2024/01/20 11:42:02;;;;;;;33.03;19.13;;;2.60;89.70;;;;;;5088147;28;20429;-78
2024/01/20 11:44:29;;;;;;;33.00;18.88;;;2.60;88.90;;;;;;5101108;28;20481;-78
2024/01/20 11:46:55;;;;;;;32.40;20.33;;;2.60;89.30;;;;;;5104948;28;20446;-78
2024/01/20 11:49:21;;;;;;;32.17;19.65;;;2.60;88.20;;;;;;5098747;28;20402;-79
2024/01/20 11:51:47;;;;;;;35.40;20.37;;;2.50;87.00;;;;;;5088937;28;20426;-78
2024/01/20 11:54:12;;;;;;;33.53;20.00;;;2.50;86.70;;;;;;5095725;28;20832;-78
2024/01/20 11:56:38;;;;;;;36.75;20.70;;;2.50;85.60;;;;;;5097776;28;20421;-78
2024/01/20 11:59:05;;;;;;;31.07;19.93;;;2.50;86.60;;;;;;5094201;28;20866;-78
2024/01/20 12:01:31;;;;;;;33.37;21.13;;;2.40;86.10;;;;;;5095939;28;20408;-78
2024/01/20 12:03:59;;;;;;;32.63;20.67;;;2.40;85.90;;;;;;5090418;28;20421;-78
2024/01/20 12:06:25;;;;;;;34.35;21.23;;;2.40;85.40;;;;;;5101815;28;20467;-78
2024/01/20 12:08:51;;;;;;;36.40;21.35;;;2.40;85.70;;;;;;5097734;28;20452;-78
2024/01/20 12:11:18;;;;;;;31.90;20.07;;;2.40;86.30;;;;;;5099877;28;20447;-78
2024/01/20 12:13:45;;;;;;;34.90;21.98;;;2.30;86.40;;;;;;5099111;28;20454;-78
2024/01/20 12:16:11;;;;;;;37.60;21.42;;;2.30;85.50;;;;;;5099414;28;20792;-78
2024/01/20 12:18:37;;;;;;;38.17;22.25;;;2.30;85.70;;;;;;5095776;28;20438;-79
2024/01/20 12:21:02;;;;;;;36.40;21.63;;;2.30;85.70;;;;;;5087277;28;20398;-78
2024/01/20 12:23:28;;;;;;;40.20;23.02;;;2.30;86.50;;;;;;5091694;28;20940;-79
2024/01/20 12:25:53;;;;;;;34.88;22.15;;;2.20;86.10;;;;;;5100993;28;20480;-78
2024/01/20 12:28:20;;;;;;;36.33;22.30;;;2.20;86.40;;;;;;5095558;28;20422;-78
2024/01/20 12:30:45;;;;;;;35.87;22.70;;;2.20;86.70;;;;;;5096543;28;20404;-79
2024/01/20 12:33:11;;;;;;;39.60;23.33;;;2.20;87.00;;;;;;5098723;28;20388;-79